createdAt,value
2019-06-10T00:00:41.988Z,18.11
2019-06-10T00:03:11.730Z,18.17
2019-06-10T00:05:41.676Z,18.20
2019-06-10T00:08:12.047Z,18.22
2019-06-10T00:10:42.141Z,18.28
2019-06-10T00:13:11.997Z,18.28
2019-06-10T00:15:41.450Z,18.32
2019-06-10T00:18:33.952Z,18.34
2019-06-10T00:20:41.524Z,18.33
2019-06-10T00:23:12.040Z,18.35
2019-06-10T00:25:41.787Z,18.34
2019-06-10T00:28:12.067Z,18.34
2019-06-10T00:30:41.732Z,18.29
2019-06-10T00:33:12.573Z,18.30
2019-06-10T00:35:41.624Z,18.27
2019-06-10T00:38:14.313Z,18.26
2019-06-10T00:40:42.024Z,18.24
2019-06-10T00:43:13.142Z,18.26
2019-06-10T00:45:41.566Z,18.27
2019-06-10T00:48:24.210Z,18.23
2019-06-10T00:50:41.894Z,18.07
2019-06-10T00:53:14.217Z,18.09
2019-06-10T00:55:42.006Z,18.11
2019-06-10T00:58:13.918Z,18.14
2019-06-10T01:00:41.901Z,18.14
2019-06-10T01:03:13.595Z,18.15
2019-06-10T01:05:42.076Z,18.17
2019-06-10T01:08:13.962Z,18.20
2019-06-10T01:10:43.850Z,18.21
2019-06-10T01:13:14.964Z,18.21
2019-06-10T01:15:42.629Z,18.18
2019-06-10T01:18:30.613Z,18.16
2019-06-10T01:20:41.992Z,18.11
2019-06-10T01:23:13.520Z,18.11
2019-06-10T01:25:42.170Z,18.07
2019-06-10T01:28:14.208Z,18.12
2019-06-10T01:30:42.261Z,18.11
2019-06-10T01:33:13.195Z,18.10
2019-06-10T01:35:42.753Z,18.05
2019-06-10T01:38:13.480Z,18.10
2019-06-10T01:40:42.464Z,18.07
2019-06-10T01:43:13.985Z,18.10
2019-06-10T01:45:42.195Z,18.13
2019-06-10T01:48:12.033Z,18.18
2019-06-10T01:50:41.861Z,18.19
2019-06-10T01:53:14.058Z,18.12
2019-06-10T01:55:41.765Z,18.04
2019-06-10T01:58:14.684Z,18.01
2019-06-10T02:00:45.805Z,18.03
2019-06-10T02:03:17.227Z,18.02
2019-06-10T02:05:45.444Z,18.06
2019-06-10T02:08:15.897Z,18.12
2019-06-10T02:10:44.727Z,18.13
2019-06-10T02:13:32.503Z,18.21
2019-06-10T02:16:02.477Z,18.26
2019-06-10T02:18:32.029Z,18.29
2019-06-10T02:21:01.443Z,18.33
2019-06-10T02:23:31.365Z,18.37
2019-06-10T02:26:02.070Z,18.43
2019-06-10T02:28:31.613Z,18.48
2019-06-10T02:31:03.885Z,18.43
2019-06-10T02:33:36.253Z,18.34
2019-06-10T02:36:04.117Z,18.30
2019-06-10T02:38:38.643Z,18.30
2019-06-10T02:41:04.663Z,18.20
2019-06-10T02:43:37.527Z,18.30
2019-06-10T02:46:05.716Z,18.17
2019-06-10T02:48:35.424Z,18.20
2019-06-10T02:51:05.941Z,18.21
2019-06-10T02:53:36.625Z,18.22
2019-06-10T02:56:06.495Z,18.18
2019-06-10T02:58:38.949Z,18.17
2019-06-10T03:01:05.739Z,18.17
2019-06-10T03:03:42.901Z,18.20
2019-06-10T03:06:06.623Z,18.24
2019-06-10T03:08:36.451Z,18.17
2019-06-10T03:11:06.072Z,18.25
2019-06-10T03:13:34.828Z,18.17
2019-06-10T03:16:05.364Z,18.19
2019-06-10T03:18:34.197Z,18.19
2019-06-10T03:21:03.002Z,18.24
2019-06-10T03:23:33.197Z,18.23
2019-06-10T03:26:04.383Z,18.23
2019-06-10T03:28:33.592Z,18.12
2019-06-10T03:31:05.541Z,18.09
2019-06-10T03:33:40.788Z,18.04
2019-06-10T03:36:04.635Z,18.01
2019-06-10T03:38:36.366Z,18.01
2019-06-10T03:41:03.908Z,18.03
2019-06-10T03:43:33.162Z,17.99
2019-06-10T03:46:03.131Z,18.03
2019-06-10T03:48:33.006Z,18.03
2019-06-10T03:51:03.438Z,18.04
2019-06-10T03:53:33.660Z,18.07
2019-06-10T03:56:02.848Z,17.86
2019-06-10T03:58:33.067Z,18.05
2019-06-10T04:01:03.047Z,18.06
2019-06-10T04:03:34.070Z,18.07
2019-06-10T04:06:03.270Z,18.12
2019-06-10T04:08:32.931Z,18.17
2019-06-10T04:11:02.886Z,18.15
2019-06-10T04:13:33.838Z,18.04
2019-06-10T04:16:03.555Z,18.16
2019-06-10T04:18:32.901Z,18.21
2019-06-10T04:21:02.546Z,18.24
2019-06-10T04:23:33.426Z,18.29
2019-06-10T04:26:02.524Z,18.22
2019-06-10T04:28:33.772Z,18.31
2019-06-10T04:31:02.592Z,18.31
2019-06-10T04:33:32.852Z,18.33
2019-06-10T04:36:02.863Z,18.32
2019-06-10T04:38:32.728Z,18.31
2019-06-10T04:41:03.483Z,18.27
2019-06-10T04:43:33.168Z,18.25
2019-06-10T04:46:02.538Z,18.24
2019-06-10T04:48:33.015Z,18.24
2019-06-10T04:51:02.758Z,18.23
2019-06-10T04:53:33.219Z,18.26
2019-06-10T04:56:03.077Z,18.26
2019-06-10T04:58:33.512Z,18.32
2019-06-10T05:01:03.258Z,18.22
2019-06-10T05:03:33.626Z,18.31
2019-06-10T05:06:03.448Z,18.34
2019-06-10T05:08:33.836Z,18.42
2019-06-10T05:11:04.872Z,18.47
2019-06-10T05:13:33.906Z,18.48
2019-06-10T05:16:03.786Z,18.53
2019-06-10T05:18:33.456Z,18.57
2019-06-10T05:21:03.069Z,18.60
2019-06-10T05:23:32.953Z,18.65
2019-06-10T05:26:02.951Z,18.61
2019-06-10T05:28:34.260Z,18.58
2019-06-10T05:31:03.008Z,18.63
2019-06-10T05:33:33.429Z,18.73
2019-06-10T05:36:02.900Z,18.77
2019-06-10T05:38:35.182Z,18.79
2019-06-10T05:41:02.901Z,18.72
2019-06-10T05:43:34.336Z,18.76
2019-06-10T05:46:03.086Z,18.72
2019-06-10T05:48:33.560Z,18.53
2019-06-10T05:51:06.307Z,18.39
2019-06-10T05:53:34.935Z,18.34
2019-06-10T05:56:03.393Z,18.31
2019-06-10T05:58:35.826Z,18.33
2019-06-10T06:01:03.912Z,18.36
2019-06-10T06:03:36.244Z,18.38
2019-06-10T06:06:03.397Z,18.35
2019-06-10T06:08:34.913Z,18.39
2019-06-10T06:11:03.231Z,18.39
2019-06-10T06:13:38.845Z,18.37
2019-06-10T06:16:07.684Z,18.41
2019-06-10T06:18:36.590Z,18.42
2019-06-10T06:21:20.689Z,18.47
2019-06-10T06:23:38.291Z,18.56
2019-06-10T06:26:07.141Z,18.56
2019-06-10T06:28:36.192Z,18.61
2019-06-10T06:31:05.117Z,18.67
2019-06-10T06:33:37.687Z,18.66
2019-06-10T06:36:04.480Z,18.71
2019-06-10T06:38:34.951Z,18.74
2019-06-10T06:41:03.732Z,18.80
2019-06-10T06:43:37.181Z,18.83
2019-06-10T06:46:02.986Z,18.88
2019-06-10T06:48:35.663Z,18.98
2019-06-10T06:51:08.055Z,19.05
2019-06-10T06:53:43.793Z,19.08
2019-06-10T06:56:03.869Z,19.12
2019-06-10T06:58:35.239Z,19.13
2019-06-10T07:01:10.046Z,19.16
2019-06-10T07:03:35.244Z,19.17
2019-06-10T07:06:04.456Z,19.18
2019-06-10T07:08:35.887Z,19.13
2019-06-10T07:11:03.786Z,19.07
2019-06-10T07:13:35.925Z,19.13
2019-06-10T07:16:04.466Z,19.20
2019-06-10T07:18:38.954Z,19.24
2019-06-10T07:21:03.827Z,19.39
2019-06-10T07:23:34.502Z,19.44
2019-06-10T07:26:03.203Z,19.51
2019-06-10T07:28:34.031Z,19.58
2019-06-10T07:31:03.245Z,19.65
2019-06-10T07:33:34.826Z,19.67
2019-06-10T07:36:03.440Z,19.78
2019-06-10T07:38:33.891Z,19.95
2019-06-10T07:41:03.156Z,20.16
2019-06-10T07:43:33.988Z,20.41
2019-06-10T07:46:03.301Z,20.62
2019-06-10T07:48:33.493Z,20.70
2019-06-10T07:51:03.212Z,20.76
2019-06-10T07:53:33.270Z,20.87
2019-06-10T07:56:03.223Z,20.97
2019-06-10T07:58:34.972Z,21.12
2019-06-10T08:01:02.991Z,21.31
2019-06-10T08:03:33.388Z,21.41
2019-06-10T08:06:03.470Z,21.57
2019-06-10T08:08:33.046Z,21.76
2019-06-10T08:11:03.427Z,21.89
2019-06-10T08:13:32.608Z,22.10
2019-06-10T08:16:02.705Z,22.17
2019-06-10T08:18:38.391Z,22.25
2019-06-10T08:23:32.810Z,22.49
2019-06-10T08:26:03.389Z,22.66
2019-06-10T08:28:33.198Z,22.73
2019-06-10T08:31:03.605Z,22.84
2019-06-10T08:33:33.227Z,23.01
2019-06-10T08:36:04.040Z,23.12
2019-06-10T08:38:34.415Z,23.27
2019-06-10T08:41:03.448Z,23.29
2019-06-10T08:43:33.615Z,23.28
2019-06-10T08:46:02.847Z,23.41
2019-06-10T08:48:32.920Z,23.60
2019-06-10T08:51:03.929Z,23.79
2019-06-10T08:53:33.155Z,23.86
2019-06-10T08:56:02.868Z,23.85
2019-06-10T08:58:33.087Z,23.88
2019-06-10T09:01:02.709Z,24.04
2019-06-10T09:03:32.511Z,24.30
2019-06-10T09:06:02.697Z,24.49
2019-06-10T09:08:32.767Z,24.62
2019-06-10T09:11:02.380Z,24.70
2019-06-10T09:13:33.602Z,24.81
2019-06-10T09:16:14.750Z,25.01
2019-06-10T09:18:33.691Z,25.13
2019-06-10T09:21:03.161Z,25.14
2019-06-10T09:23:33.201Z,25.16
2019-06-10T09:26:03.578Z,25.12
2019-06-10T09:28:33.110Z,24.93
2019-06-10T09:31:04.121Z,24.84
2019-06-10T09:33:33.070Z,24.83
2019-06-10T09:36:03.819Z,24.92
2019-06-10T09:38:33.583Z,25.01
2019-06-10T09:41:06.121Z,25.10
2019-06-10T09:43:34.011Z,25.09
2019-06-10T09:46:03.581Z,25.07
2019-06-10T09:48:33.761Z,25.12
2019-06-10T09:51:02.954Z,25.16
2019-06-10T09:53:39.285Z,25.29
2019-06-10T09:56:04.110Z,25.27
2019-06-10T09:58:33.067Z,25.38
2019-06-10T10:01:04.831Z,25.49
2019-06-10T10:03:33.625Z,25.68
2019-06-10T10:06:11.649Z,25.71
2019-06-10T10:08:34.016Z,25.83
2019-06-10T10:11:03.247Z,25.88
2019-06-10T10:13:35.420Z,25.82
2019-06-10T10:16:02.855Z,25.86
2019-06-10T10:18:32.950Z,25.88
2019-06-10T10:21:03.913Z,25.89
2019-06-10T10:23:49.042Z,26.00
2019-06-10T10:26:03.583Z,26.08
2019-06-10T10:28:33.462Z,26.20
2019-06-10T10:31:04.387Z,26.24
2019-06-10T10:33:33.400Z,26.29
2019-06-10T10:36:03.052Z,26.21
2019-06-10T10:38:34.457Z,26.33
2019-06-10T10:41:04.470Z,26.43
2019-06-10T10:43:37.202Z,26.53
2019-06-10T10:46:05.680Z,26.59
2019-06-10T10:48:34.280Z,26.72
2019-06-10T10:51:03.813Z,26.79
2019-06-10T10:53:33.123Z,26.94
2019-06-10T10:56:03.337Z,26.95
2019-06-10T10:58:33.177Z,27.13
2019-06-10T11:01:04.651Z,27.27
2019-06-10T11:03:33.901Z,27.41
2019-06-10T11:06:02.756Z,27.66
2019-06-10T11:08:33.261Z,27.88
2019-06-10T11:11:05.109Z,27.86
2019-06-10T11:13:34.109Z,27.98
2019-06-10T11:16:03.512Z,27.92
2019-06-10T11:18:33.952Z,27.85
2019-06-10T11:21:05.094Z,27.73
2019-06-10T11:23:34.731Z,27.70
2019-06-10T11:26:03.875Z,27.61
2019-06-10T11:28:32.740Z,27.64
2019-06-10T11:31:03.761Z,27.71
2019-06-10T11:33:32.886Z,27.77
2019-06-10T11:36:02.975Z,27.73
2019-06-10T11:38:32.853Z,27.77
2019-06-10T11:41:02.317Z,27.76
2019-06-10T11:43:33.217Z,27.77
2019-06-10T11:46:06.826Z,27.65
2019-06-10T11:48:32.806Z,27.58
2019-06-10T11:51:04.588Z,27.54
2019-06-10T11:53:34.418Z,27.50
2019-06-10T11:56:02.848Z,27.47
2019-06-10T11:58:33.338Z,27.46
2019-06-10T12:01:03.834Z,27.50
2019-06-10T12:03:32.560Z,27.57
2019-06-10T12:06:05.087Z,27.68
2019-06-10T12:08:32.839Z,27.69
2019-06-10T12:11:02.600Z,27.74
2019-06-10T12:13:34.222Z,27.72
2019-06-10T12:18:33.228Z,27.90
2019-06-10T12:21:03.692Z,28.11
2019-06-10T12:23:33.780Z,28.30
2019-06-10T12:26:04.871Z,28.38
2019-06-10T12:28:33.734Z,28.31
2019-06-10T12:31:06.622Z,28.30
2019-06-10T12:33:33.804Z,28.24
2019-06-10T12:36:06.637Z,28.29
2019-06-10T12:38:33.784Z,28.31
2019-06-10T12:41:08.022Z,28.02
2019-06-10T12:43:33.463Z,27.80
2019-06-10T12:46:03.382Z,28.09
2019-06-10T12:48:34.090Z,28.32
2019-06-10T12:51:06.304Z,28.37
2019-06-10T12:53:33.686Z,28.23
2019-06-10T12:56:08.029Z,28.13
2019-06-10T12:58:33.728Z,28.19
2019-06-10T13:01:05.815Z,28.24
2019-06-10T13:03:33.936Z,28.35
2019-06-10T13:06:07.357Z,28.34
2019-06-10T13:08:35.117Z,28.28
2019-06-10T13:11:04.419Z,28.33
2019-06-10T13:13:33.168Z,28.38
2019-06-10T13:16:06.664Z,28.36
2019-06-10T13:18:33.471Z,28.52
2019-06-10T13:21:10.891Z,28.78
2019-06-10T13:23:35.415Z,28.65
2019-06-10T13:26:10.828Z,28.66
2019-06-10T13:28:36.304Z,28.67
2019-06-10T13:31:08.034Z,28.72
2019-06-10T13:33:35.801Z,28.84
2019-06-10T13:36:06.466Z,28.94
2019-06-10T13:38:35.116Z,28.94
2019-06-10T13:41:04.310Z,28.94
2019-06-10T13:43:34.052Z,28.71
2019-06-10T13:46:05.676Z,28.68
2019-06-10T13:48:33.505Z,28.55
2019-06-10T13:51:08.291Z,28.66
2019-06-10T13:53:32.777Z,28.69
2019-06-10T13:56:23.356Z,28.67
2019-06-10T13:58:32.036Z,28.77
2019-06-10T14:01:04.000Z,28.82
2019-06-10T14:03:32.651Z,29.06
2019-06-10T14:06:12.932Z,29.17
2019-06-10T14:08:32.649Z,29.19
2019-06-10T14:11:06.981Z,29.23
2019-06-10T14:13:32.741Z,29.27
2019-06-10T14:16:03.349Z,29.17
2019-06-10T14:18:33.468Z,29.10
2019-06-10T14:21:04.920Z,29.16
2019-06-10T14:23:33.215Z,29.09
2019-06-10T14:26:03.290Z,29.13
2019-06-10T14:28:40.797Z,29.13
2019-06-10T14:31:24.157Z,29.09
2019-06-10T14:33:35.705Z,29.20
2019-06-10T14:36:05.879Z,29.43
2019-06-10T14:38:35.018Z,29.51
2019-06-10T14:41:04.974Z,29.64
2019-06-10T14:43:34.381Z,29.72
2019-06-10T14:46:04.445Z,29.55
2019-06-10T14:48:33.857Z,29.52
2019-06-10T14:51:03.390Z,29.64
2019-06-10T14:53:33.739Z,29.82
2019-06-10T14:56:03.582Z,29.91
2019-06-10T14:58:33.001Z,29.69
2019-06-10T15:01:04.779Z,29.36
2019-06-10T15:03:33.805Z,28.90
2019-06-10T15:06:03.322Z,28.83
2019-06-10T15:08:33.576Z,28.71
2019-06-10T15:11:02.471Z,28.68
2019-06-10T15:13:32.725Z,28.48
2019-06-10T15:16:04.456Z,28.44
2019-06-10T15:18:33.049Z,28.28
2019-06-10T15:21:02.875Z,28.24
2019-06-10T15:23:32.630Z,28.15
2019-06-10T15:26:02.891Z,28.14
2019-06-10T15:28:32.697Z,28.03
2019-06-10T15:31:03.009Z,27.96
2019-06-10T15:33:32.751Z,27.88
2019-06-10T15:36:02.533Z,27.75
2019-06-10T15:38:32.797Z,27.64
2019-06-10T15:41:01.953Z,27.32
2019-06-10T15:43:32.893Z,25.44
2019-06-10T15:46:03.406Z,22.81
2019-06-10T15:48:31.730Z,20.98
2019-06-10T15:51:02.837Z,20.56
2019-06-10T15:53:32.828Z,20.04
2019-06-10T15:56:27.252Z,19.48
2019-06-10T15:58:32.150Z,19.05
2019-06-10T16:01:02.829Z,18.82
2019-06-10T16:03:33.056Z,18.64
2019-06-10T16:06:03.197Z,18.63
2019-06-10T16:08:33.001Z,18.73
2019-06-10T16:11:03.182Z,18.80
2019-06-10T16:13:32.531Z,18.81
2019-06-10T16:16:03.667Z,19.06
2019-06-10T16:18:32.966Z,19.07
2019-06-10T16:21:04.322Z,19.20
2019-06-10T16:23:33.979Z,19.22
2019-06-10T16:26:04.414Z,19.29
2019-06-10T16:28:33.255Z,19.44
2019-06-10T16:31:02.803Z,19.53
2019-06-10T16:33:33.562Z,19.62
2019-06-10T16:36:02.872Z,19.68
2019-06-10T16:38:32.791Z,19.73
2019-06-10T16:41:03.532Z,19.75
2019-06-10T16:43:33.411Z,19.75
2019-06-10T16:46:03.326Z,19.80
2019-06-10T16:48:33.415Z,19.75
2019-06-10T16:51:03.417Z,19.86
2019-06-10T16:53:35.508Z,19.85
2019-06-10T16:56:03.448Z,19.85
2019-06-10T16:58:33.851Z,19.88
2019-06-10T17:01:04.062Z,19.87
2019-06-10T17:03:34.034Z,19.86
2019-06-10T17:06:03.103Z,19.90
2019-06-10T17:08:33.388Z,19.95
2019-06-10T17:11:03.638Z,19.96
2019-06-10T17:13:32.713Z,19.91
2019-06-10T17:16:03.432Z,19.93
2019-06-10T17:18:33.701Z,19.98
2019-06-10T17:21:04.280Z,19.88
2019-06-10T17:23:36.472Z,19.90
2019-06-10T17:26:04.173Z,19.91
2019-06-10T17:28:36.663Z,19.80
2019-06-10T17:31:04.023Z,19.72
2019-06-10T17:33:35.851Z,19.75
2019-06-10T17:36:03.821Z,19.80
2019-06-10T17:38:32.613Z,19.82
2019-06-10T17:41:02.970Z,19.87
2019-06-10T17:43:34.445Z,19.84
2019-06-10T17:46:03.898Z,19.93
2019-06-10T17:48:33.614Z,20.05
2019-06-10T17:51:02.908Z,20.21
2019-06-10T17:53:34.742Z,20.29
2019-06-10T17:56:03.318Z,20.29
2019-06-10T17:58:47.611Z,20.30
2019-06-10T18:01:03.222Z,20.33
2019-06-10T18:03:33.277Z,20.24
2019-06-10T18:06:02.935Z,20.27
2019-06-10T18:08:36.291Z,20.24
2019-06-10T18:11:03.684Z,20.26
2019-06-10T18:13:34.732Z,20.26
2019-06-10T18:16:03.634Z,20.22
2019-06-10T18:18:36.561Z,20.19
2019-06-10T18:21:04.049Z,20.11
2019-06-10T18:23:33.179Z,20.11
2019-06-10T18:26:03.327Z,20.07
2019-06-10T18:28:45.559Z,20.06
2019-06-10T18:31:03.097Z,19.98
2019-06-10T18:33:34.520Z,19.97
2019-06-10T18:36:02.349Z,19.96
2019-06-10T18:38:33.977Z,19.97
2019-06-10T18:41:03.202Z,19.94
2019-06-10T18:43:33.759Z,19.92
2019-06-10T18:46:03.474Z,19.93
2019-06-10T18:48:35.992Z,19.89
2019-06-10T18:51:03.230Z,19.85
2019-06-10T18:53:33.518Z,19.83
2019-06-10T18:56:02.480Z,19.81
2019-06-10T18:58:34.218Z,19.78
2019-06-10T19:01:07.120Z,19.76
2019-06-10T19:03:34.614Z,19.74
2019-06-10T19:06:02.624Z,19.71
2019-06-10T19:08:34.268Z,19.64
2019-06-10T19:11:02.458Z,19.59
2019-06-10T19:13:33.963Z,19.61
2019-06-10T19:16:02.488Z,19.61
2019-06-10T19:18:31.970Z,19.63
2019-06-10T19:21:04.279Z,19.65
2019-06-10T19:23:34.673Z,19.63
2019-06-10T19:26:03.030Z,19.63
2019-06-10T19:28:33.827Z,19.61
2019-06-10T19:31:02.992Z,19.59
2019-06-10T19:33:35.011Z,19.59
2019-06-10T19:36:02.545Z,19.57
2019-06-10T19:38:32.444Z,19.56
2019-06-10T19:41:02.761Z,19.59
2019-06-10T19:43:34.587Z,19.57
2019-06-10T19:46:04.394Z,19.52
2019-06-10T19:48:37.302Z,19.45
2019-06-10T19:51:03.333Z,19.41
2019-06-10T19:53:33.017Z,19.45
2019-06-10T19:56:02.757Z,19.45
2019-06-10T19:58:32.327Z,19.45
2019-06-10T20:01:01.528Z,19.43
2019-06-10T20:03:32.516Z,19.42
2019-06-10T20:06:03.140Z,19.40
2019-06-10T20:08:33.071Z,19.40
2019-06-10T20:11:03.448Z,19.38
2019-06-10T20:13:32.628Z,19.34
2019-06-10T20:16:02.961Z,19.32
2019-06-10T20:18:33.210Z,19.32
2019-06-10T20:21:02.705Z,19.28
2019-06-10T20:23:33.357Z,19.26
2019-06-10T20:26:02.376Z,19.25
2019-06-10T20:28:32.199Z,19.19
2019-06-10T20:31:01.412Z,19.13
2019-06-10T20:33:36.166Z,19.11
2019-06-10T20:36:06.318Z,19.08
2019-06-10T20:38:32.729Z,19.05
2019-06-10T20:41:02.612Z,19.05
2019-06-10T20:43:32.858Z,19.04
2019-06-10T20:46:03.034Z,19.04
2019-06-10T20:48:33.592Z,19.01
2019-06-10T20:51:03.283Z,18.97
2019-06-10T20:53:33.771Z,18.96
2019-06-10T20:56:03.721Z,18.98
2019-06-10T20:58:33.303Z,18.93
2019-06-10T21:01:04.531Z,18.89
2019-06-10T21:03:32.955Z,18.91
2019-06-10T21:06:03.402Z,18.88
2019-06-10T21:08:33.960Z,18.87
2019-06-10T21:11:03.215Z,18.84
2019-06-10T21:13:32.994Z,18.79
2019-06-10T21:16:03.628Z,18.76
2019-06-10T21:18:33.114Z,18.72
2019-06-10T21:21:02.280Z,18.72
2019-06-10T21:23:31.173Z,18.70
2019-06-10T21:26:02.537Z,18.68
2019-06-10T21:28:32.719Z,18.68
2019-06-10T21:31:02.878Z,18.64
2019-06-10T21:33:33.286Z,18.59
2019-06-10T21:36:04.062Z,18.61
2019-06-10T21:38:33.243Z,18.50
2019-06-10T21:41:03.265Z,18.52
2019-06-10T21:43:33.051Z,18.54
2019-06-10T21:46:03.786Z,18.51
2019-06-10T21:48:32.871Z,18.48
2019-06-10T21:51:01.670Z,18.47
2019-06-10T21:53:31.768Z,18.40
2019-06-10T21:56:00.580Z,18.43
2019-06-10T21:58:29.401Z,18.38
2019-06-10T22:01:09.705Z,18.33
2019-06-10T22:03:28.722Z,18.27
2019-06-10T22:05:57.658Z,18.27
2019-06-10T22:08:27.879Z,18.24
2019-06-10T22:10:56.795Z,18.18
2019-06-10T22:13:25.645Z,18.10
2019-06-10T22:15:56.900Z,18.15
2019-06-10T22:18:25.393Z,18.17
2019-06-10T22:20:57.553Z,18.21
2019-06-10T22:23:24.706Z,18.25
2019-06-10T22:25:55.880Z,18.21
2019-06-10T22:28:23.952Z,18.21
2019-06-10T22:31:10.825Z,18.23
2019-06-10T22:33:23.206Z,18.18
2019-06-10T22:35:54.550Z,18.15
2019-06-10T22:38:22.474Z,18.09
2019-06-10T22:40:53.627Z,18.00
2019-06-10T22:43:23.590Z,17.98
2019-06-10T22:45:54.239Z,17.91
2019-06-10T22:48:22.681Z,17.90
2019-06-10T22:50:51.416Z,17.93
2019-06-10T22:53:22.981Z,17.93
2019-06-10T22:55:53.032Z,17.87
2019-06-10T22:58:23.741Z,17.79
2019-06-10T23:00:53.205Z,17.82
2019-06-10T23:03:22.067Z,17.85
2019-06-10T23:05:52.248Z,17.79
2019-06-10T23:08:23.032Z,17.83
2019-06-10T23:10:53.768Z,17.83
2019-06-10T23:13:23.181Z,17.89
2019-06-10T23:15:54.550Z,17.89
2019-06-10T23:18:22.637Z,17.91
2019-06-10T23:20:54.491Z,17.93
2019-06-10T23:23:23.328Z,17.95
2019-06-10T23:25:53.664Z,17.91
2019-06-10T23:28:22.941Z,17.91
2019-06-10T23:30:55.299Z,18.03
2019-06-10T23:33:22.911Z,18.10
2019-06-10T23:35:52.575Z,18.06
2019-06-10T23:38:23.583Z,18.04
2019-06-10T23:40:53.057Z,18.10
2019-06-10T23:43:22.482Z,18.11
2019-06-10T23:45:51.690Z,18.14
2019-06-10T23:48:22.760Z,18.11
2019-06-10T23:50:54.045Z,18.13
2019-06-10T23:53:23.233Z,18.15
2019-06-10T23:55:54.590Z,18.17
2019-06-10T23:58:25.245Z,18.15
